Time;durP1;ratioP1;P1;durP2;ratioP2;P2;SDS_P1;SDS_P2;PMS_P1;PMS_P2;Temp;Humidity;BMP_temperature;BMP_pressure;BME280_temperature;BME280_humidity;BME280_pressure;Samples;Min_cycle;Max_cycle;Signal;HPM_P1;HPM_P2
2022/10/15 00:00:33;;;;;;;;;;;14.60;99.90;;;;;;4958867;28;20468;-73
2022/10/15 00:02:59;;;;;;;;;;;14.50;99.90;;;;;;4957379;28;20008;-72
2022/10/15 00:05:27;;;;;;;;;;;14.60;99.90;;;;;;4957940;28;19977;-73
2022/10/15 00:07:55;;;;;;;;;;;14.50;99.90;;;;;;4958927;28;19931;-73
2022/10/15 00:10:22;;;;;;;;;;;14.60;99.90;;;;;;4960782;28;20028;-72
2022/10/15 00:12:49;;;;;;;;;;;14.50;99.90;;;;;;4956470;28;19930;-74
2022/10/15 00:15:15;;;;;;;;;;;14.50;99.90;;;;;;4958354;28;19966;-73
2022/10/15 00:17:42;;;;;;;;;;;14.50;99.90;;;;;;4963726;28;19930;-74
2022/10/15 00:20:10;;;;;;;;;;;14.50;99.90;;;;;;4961305;28;20042;-73
2022/10/15 00:22:39;;;;;;;;;;;14.50;99.90;;;;;;4961411;28;19970;-73
2022/10/15 00:25:06;;;;;;;;;;;14.50;99.90;;;;;;4959979;28;19969;-73
2022/10/15 00:27:33;;;;;;;;;;;14.50;99.90;;;;;;4959844;28;20463;-72
2022/10/15 00:30:02;;;;;;;;;;;14.50;99.90;;;;;;4956921;28;19926;-73
2022/10/15 00:32:28;;;;;;;;;;;14.50;99.90;;;;;;4959386;28;19937;-73
2022/10/15 00:34:55;;;;;;;;;;;14.50;99.90;;;;;;4962570;28;19969;-73
2022/10/15 00:37:22;;;;;;;;;;;14.50;99.90;;;;;;4962668;28;19954;-73
2022/10/15 00:39:51;;;;;;;;;;;14.50;99.90;;;;;;4959680;28;20451;-73
2022/10/15 00:42:18;;;;;;;;;;;14.50;99.90;;;;;;4976063;28;19938;-73
2022/10/15 00:44:49;;;;;;;;;;;14.60;99.90;;;;;;4962673;28;20384;-73
2022/10/15 00:47:17;;;;;;;;;;;14.50;99.90;;;;;;4962246;28;20024;-73
2022/10/15 00:49:46;;;;;;;;;;;14.50;99.90;;;;;;4954633;28;19980;-74
2022/10/15 00:52:16;;;;;;;;;;;14.50;99.90;;;;;;4951497;28;19965;-73
2022/10/15 00:54:44;;;;;;;;;;;14.50;99.90;;;;;;4977951;28;20682;-73
2022/10/15 00:57:12;;;;;;;;;;;14.50;99.90;;;;;;4962381;28;19926;-73
2022/10/15 00:59:43;;;;;;;;;;;14.50;99.90;;;;;;4967085;28;19969;-73
2022/10/15 01:02:10;;;;;;;;;;;14.50;99.90;;;;;;4963419;28;19937;-74
2022/10/15 01:04:37;;;;;;;;;;;14.50;99.90;;;;;;4966510;28;19940;-73
2022/10/15 01:07:04;;;;;;;;;;;14.50;99.90;;;;;;4960007;28;19934;-74
2022/10/15 01:09:31;;;;;;;;;;;14.50;99.90;;;;;;4965355;28;19926;-73
2022/10/15 01:11:57;;;;;;;;;;;14.50;99.90;;;;;;4963592;28;19926;-73
2022/10/15 01:14:31;;;;;;;;;;;14.50;99.90;;;;;;4963699;28;19926;-73
2022/10/15 01:17:02;;;;;;;;;;;14.50;99.90;;;;;;4961349;28;19937;-73
2022/10/15 01:19:37;;;;;;;;;;;14.40;99.90;;;;;;4961638;28;19984;-73
2022/10/15 01:22:05;;;;;;;;;;;14.50;99.90;;;;;;4963598;28;20034;-73
2022/10/15 01:24:47;;;;;;;;;;;14.50;99.90;;;;;;4957780;28;20254;-74
2022/10/15 01:27:34;;;;;;;;;;;14.40;99.90;;;;;;4959676;28;20483;-73
2022/10/15 01:30:11;;;;;;;;;;;14.40;99.90;;;;;;4977867;28;19926;-73
2022/10/15 01:32:44;;;;;;;;;;;14.40;99.90;;;;;;4960871;28;20571;-74
2022/10/15 01:35:20;;;;;;;;;;;14.40;99.90;;;;;;4961134;28;19933;-74
2022/10/15 01:37:52;;;;;;;;;;;14.40;99.90;;;;;;4974932;28;19934;-73
2022/10/15 01:40:20;;;;;;;;;;;14.40;99.90;;;;;;4957784;28;19927;-73
2022/10/15 01:42:51;;;;;;;;;;;14.40;99.90;;;;;;4958905;28;19934;-72
2022/10/15 01:45:20;;;;;;;;;;;14.40;99.90;;;;;;4980603;28;19930;-73
2022/10/15 01:48:22;;;;;;;;;;;14.40;99.90;;;;;;4933197;28;19926;-73
2022/10/15 01:50:52;;;;;;;;;;;14.40;99.90;;;;;;4960876;28;19938;-73
2022/10/15 01:53:25;;;;;;;;;;;14.40;99.90;;;;;;4978940;28;19926;-73
2022/10/15 01:55:53;;;;;;;;;;;14.40;99.90;;;;;;4964828;28;20344;-73
2022/10/15 01:58:20;;;;;;;;;;;14.40;99.90;;;;;;4964623;28;19970;-73
2022/10/15 02:00:48;;;;;;;;;;;14.40;99.90;;;;;;4959544;28;19926;-72
2022/10/15 02:03:15;;;;;;;;;;;14.40;99.90;;;;;;4960991;28;19930;-73
2022/10/15 02:05:47;;;;;;;;;;;14.40;99.90;;;;;;4960459;28;20389;-73
2022/10/15 02:08:19;;;;;;;;;;;14.40;99.90;;;;;;4958735;28;19934;-72
2022/10/15 02:10:50;;;;;;;;;;;14.40;99.90;;;;;;4958559;28;19941;-73
2022/10/15 02:13:21;;;;;;;;;;;14.40;99.90;;;;;;4964356;28;19930;-73
2022/10/15 02:15:52;;;;;;;;;;;14.40;99.90;;;;;;4962100;28;19977;-73
2022/10/15 02:18:26;;;;;;;;;;;14.50;99.90;;;;;;4958881;28;19937;-71
2022/10/15 02:20:57;;;;;;;;;;;14.40;99.90;;;;;;4961984;28;19934;-73
2022/10/15 02:23:27;;;;;;;;;;;14.40;99.90;;;;;;4964877;28;20029;-73
2022/10/15 02:25:59;;;;;;;;;;;14.40;99.90;;;;;;4957369;28;19926;-72
2022/10/15 02:28:27;;;;;;;;;;;14.40;99.90;;;;;;4963871;28;20017;-73
2022/10/15 02:30:57;;;;;;;;;;;14.40;99.90;;;;;;4958157;28;19981;-73
2022/10/15 02:33:25;;;;;;;;;;;14.40;99.90;;;;;;4976897;28;19938;-73
2022/10/15 02:35:52;;;;;;;;;;;14.40;99.90;;;;;;4958879;28;19970;-72
2022/10/15 02:38:22;;;;;;;;;;;14.40;99.90;;;;;;4960242;28;19926;-73
2022/10/15 02:40:52;;;;;;;;;;;14.40;99.90;;;;;;4960018;28;20013;-73
2022/10/15 02:43:20;;;;;;;;;;;14.40;99.90;;;;;;4962358;28;19926;-73
2022/10/15 02:45:47;;;;;;;;;;;14.40;99.90;;;;;;4967547;28;19934;-73
2022/10/15 02:48:15;;;;;;;;;;;14.40;99.90;;;;;;4957245;28;19926;-73
2022/10/15 02:50:42;;;;;;;;;;;14.40;99.90;;;;;;4961927;28;19926;-72
2022/10/15 02:53:09;;;;;;;;;;;14.40;99.90;;;;;;4962485;28;20033;-73
2022/10/15 02:55:38;;;;;;;;;;;14.40;99.90;;;;;;4963943;28;19926;-73
2022/10/15 02:58:04;;;;;;;;;;;14.40;99.90;;;;;;4960092;28;19934;-72
2022/10/15 03:00:31;;;;;;;;;;;14.40;99.90;;;;;;4974548;28;20089;-73
2022/10/15 03:02:59;;;;;;;;;;;14.40;99.90;;;;;;4960889;28;19926;-73
2022/10/15 03:05:25;;;;;;;;;;;14.40;99.90;;;;;;4957383;28;19937;-73
2022/10/15 03:07:53;;;;;;;;;;;14.40;99.90;;;;;;4958328;28;19926;-73
2022/10/15 03:10:21;;;;;;;;;;;14.40;99.90;;;;;;4960920;28;21714;-73
2022/10/15 03:12:49;;;;;;;;;;;14.40;99.90;;;;;;4961710;28;19927;-73
2022/10/15 03:15:16;;;;;;;;;;;14.40;99.90;;;;;;4956556;28;19937;-73
2022/10/15 03:17:45;;;;;;;;;;;14.40;99.90;;;;;;4974112;28;20428;-73
2022/10/15 03:20:14;;;;;;;;;;;14.40;99.90;;;;;;4961652;28;19985;-73
2022/10/15 03:22:42;;;;;;;;;;;14.40;99.90;;;;;;4957362;28;19927;-72
2022/10/15 03:25:09;;;;;;;;;;;14.40;99.90;;;;;;4958025;28;20578;-73
2022/10/15 03:27:36;;;;;;;;;;;14.40;99.90;;;;;;4963906;28;19933;-73
2022/10/15 03:30:12;;;;;;;;;;;14.40;99.90;;;;;;4959929;28;19973;-73
2022/10/15 03:32:40;;;;;;;;;;;14.40;99.90;;;;;;4976340;28;19934;-73
2022/10/15 03:35:08;;;;;;;;;;;14.40;99.90;;;;;;4956989;28;20327;-71
2022/10/15 03:37:35;;;;;;;;;;;14.40;99.90;;;;;;4961791;28;19948;-73
2022/10/15 03:40:03;;;;;;;;;;;14.40;99.90;;;;;;4977866;28;20697;-72
2022/10/15 03:42:30;;;;;;;;;;;14.40;99.90;;;;;;4954359;28;19954;-73
2022/10/15 03:44:57;;;;;;;;;;;14.40;99.90;;;;;;4961185;28;19926;-73
2022/10/15 03:47:25;;;;;;;;;;;14.40;99.90;;;;;;4964298;28;20408;-72
2022/10/15 03:49:53;;;;;;;;;;;14.40;99.90;;;;;;4960066;28;20017;-73
2022/10/15 03:52:20;;;;;;;;;;;14.40;99.90;;;;;;4974663;28;19934;-72
2022/10/15 03:54:48;;;;;;;;;;;14.40;99.90;;;;;;4975322;28;20013;-72
2022/10/15 03:57:18;;;;;;;;;;;14.40;99.90;;;;;;4958642;28;20016;-72
2022/10/15 03:59:49;;;;;;;;;;;14.40;99.90;;;;;;4962113;28;19930;-73
2022/10/15 04:02:17;;;;;;;;;;;14.40;99.90;;;;;;4956792;28;21083;-73
2022/10/15 04:04:45;;;;;;;;;;;14.40;99.90;;;;;;4961712;28;19949;-73
2022/10/15 04:07:12;;;;;;;;;;;14.40;99.90;;;;;;4960631;28;19930;-72
2022/10/15 04:09:39;;;;;;;;;;;14.40;99.90;;;;;;4956658;28;19980;-73
2022/10/15 04:12:22;;;;;;;;;;;14.40;99.90;;;;;;4958617;28;19930;-72
2022/10/15 04:14:49;;;;;;;;;;;14.40;99.90;;;;;;4959286;28;19955;-73
2022/10/15 04:17:16;;;;;;;;;;;14.40;99.90;;;;;;4961590;28;19963;-73
2022/10/15 04:19:43;;;;;;;;;;;14.40;99.90;;;;;;4959689;28;19930;-73
2022/10/15 04:22:11;;;;;;;;;;;14.50;99.90;;;;;;4962424;28;19930;-73
2022/10/15 04:24:43;;;;;;;;;;;14.50;99.90;;;;;;4978570;28;19965;-73
2022/10/15 04:27:14;;;;;;;;;;;14.50;99.90;;;;;;4958580;28;20032;-72
2022/10/15 04:29:41;;;;;;;;;;;14.50;99.90;;;;;;4963778;28;20021;-73
2022/10/15 04:32:14;;;;;;;;;;;14.50;99.90;;;;;;4977214;28;20028;-74
2022/10/15 04:34:43;;;;;;;;;;;14.50;99.90;;;;;;4961056;28;19930;-73
2022/10/15 04:37:12;;;;;;;;;;;14.50;99.90;;;;;;4958014;28;19934;-73
2022/10/15 04:39:39;;;;;;;;;;;14.50;99.90;;;;;;4962392;28;19935;-71
2022/10/15 04:42:08;;;;;;;;;;;14.50;99.90;;;;;;4973416;28;20323;-73
2022/10/15 04:44:35;;;;;;;;;;;14.50;99.90;;;;;;4973746;28;20416;-73
2022/10/15 04:47:02;;;;;;;;;;;14.50;99.90;;;;;;4956510;28;19985;-73
2022/10/15 04:49:49;;;;;;;;;;;14.50;99.90;;;;;;4961832;28;20580;-73
2022/10/15 04:52:32;;;;;;;;;;;14.50;99.90;;;;;;4964211;28;19926;-83
2022/10/15 04:55:05;;;;;;;;;;;14.50;99.90;;;;;;4976822;28;20307;-73
2022/10/15 04:57:32;;;;;;;;;;;14.50;99.90;;;;;;4952886;28;19973;-74
2022/10/15 04:59:59;;;;;;;;;;;14.50;99.90;;;;;;4956192;28;19926;-73
2022/10/15 05:02:32;;;;;;;;;;;14.50;99.90;;;;;;4941336;28;19940;-73
2022/10/15 05:05:20;;;;;;;;;;;14.50;99.90;;;;;;4955693;28;19926;-74
2022/10/15 05:07:54;;;;;;;;;;;14.50;99.90;;;;;;4965590;28;19926;-74
2022/10/15 05:10:21;;;;;;;;;;;14.50;99.90;;;;;;4955648;28;20523;-74
2022/10/15 05:12:51;;;;;;;;;;;14.40;99.90;;;;;;4977908;28;19934;-74
2022/10/15 05:15:26;;;;;;;;;;;14.50;99.90;;;;;;4962473;28;19932;-74
2022/10/15 05:17:54;;;;;;;;;;;14.50;99.90;;;;;;4978963;28;19937;-74
2022/10/15 05:20:24;;;;;;;;;;;14.50;99.90;;;;;;4964729;28;20360;-73
2022/10/15 05:22:51;;;;;;;;;;;14.50;99.90;;;;;;4968808;28;19933;-73
2022/10/15 05:25:19;;;;;;;;;;;14.50;99.90;;;;;;4962514;28;19989;-72
2022/10/15 05:27:47;;;;;;;;;;;14.50;99.90;;;;;;4961937;28;19937;-72
2022/10/15 05:30:14;;;;;;;;;;;14.50;99.90;;;;;;4960629;28;19933;-74
2022/10/15 05:32:51;;;;;;;;;;;14.50;99.90;;;;;;4964765;28;19966;-74
2022/10/15 05:35:18;;;;;;;;;;;14.50;99.90;;;;;;4964944;28;19930;-74
2022/10/15 05:37:58;;;;;;;;;;;14.50;99.90;;;;;;4955844;28;19942;-73
2022/10/15 05:40:26;;;;;;;;;;;14.50;99.90;;;;;;4978973;28;19926;-73
2022/10/15 05:43:05;;;;;;;;;;;14.50;99.90;;;;;;4976868;28;19926;-73
2022/10/15 05:45:32;;;;;;;;;;;14.50;99.90;;;;;;4976514;28;20045;-74
2022/10/15 05:48:04;;;;;;;;;;;14.50;99.90;;;;;;4961611;28;19977;-74
2022/10/15 05:50:31;;;;;;;;;;;14.50;99.90;;;;;;4963593;28;20013;-74
2022/10/15 05:52:59;;;;;;;;;;;14.50;99.90;;;;;;4963645;28;19953;-74
2022/10/15 05:55:41;;;;;;;;;;;14.50;99.90;;;;;;4964199;28;20372;-73
2022/10/15 05:58:07;;;;;;;;;;;14.50;99.90;;;;;;4965809;28;19961;-73
2022/10/15 06:00:35;;;;;;;;;;;14.50;99.90;;;;;;4962705;28;19933;-73
2022/10/15 06:03:02;;;;;;;;;;;14.50;99.90;;;;;;4961556;28;20816;-73
2022/10/15 06:05:28;;;;;;;;;;;14.50;99.90;;;;;;4961771;28;20012;-73
2022/10/15 06:07:56;;;;;;;;;;;14.50;99.90;;;;;;4967367;28;20173;-73
2022/10/15 06:10:23;;;;;;;;;;;14.50;99.90;;;;;;4958485;28;19933;-73
2022/10/15 06:12:51;;;;;;;;;;;14.50;99.90;;;;;;4965414;28;19926;-73
2022/10/15 06:15:18;;;;;;;;;;;14.50;99.90;;;;;;4963310;28;20074;-73
2022/10/15 06:17:45;;;;;;;;;;;14.50;99.90;;;;;;4972985;28;19948;-73
2022/10/15 06:20:11;;;;;;;;;;;14.50;99.90;;;;;;4958051;28;19930;-72
2022/10/15 06:22:38;;;;;;;;;;;14.50;99.90;;;;;;4959652;28;19926;-73
2022/10/15 06:25:06;;;;;;;;;;;14.50;99.90;;;;;;4974925;28;19933;-73
2022/10/15 06:27:33;;;;;;;;;;;14.50;99.90;;;;;;4963611;28;19934;-73
2022/10/15 06:30:01;;;;;;;;;;;14.50;99.90;;;;;;4966093;28;19937;-72
2022/10/15 06:32:28;;;;;;;;;;;14.50;99.90;;;;;;4960021;28;19993;-73
2022/10/15 06:34:54;;;;;;;;;;;14.50;99.90;;;;;;4965609;28;19973;-72
2022/10/15 06:37:21;;;;;;;;;;;14.50;99.90;;;;;;4979182;28;20013;-73
2022/10/15 06:39:48;;;;;;;;;;;14.50;99.90;;;;;;4963870;28;19932;-72
2022/10/15 06:42:15;;;;;;;;;;;14.50;99.90;;;;;;4963641;28;19938;-72
2022/10/15 06:44:47;;;;;;;;;;;14.50;99.90;;;;;;4958852;28;19938;-73
2022/10/15 06:47:18;;;;;;;;;;;14.50;99.90;;;;;;4956358;28;19957;-73
2022/10/15 06:49:47;;;;;;;;;;;14.50;99.90;;;;;;4955718;28;20044;-73
2022/10/15 06:52:14;;;;;;;;;;;14.40;99.90;;;;;;4962557;28;19932;-72
2022/10/15 06:54:41;;;;;;;;;;;14.50;99.90;;;;;;4962382;28;21188;-72
2022/10/15 06:57:10;;;;;;;;;;;14.50;99.90;;;;;;4956461;28;19965;-73
2022/10/15 06:59:37;;;;;;;;;;;14.50;99.90;;;;;;4959556;28;20401;-75
2022/10/15 07:02:04;;;;;;;;;;;14.50;99.90;;;;;;4959420;28;19930;-77
2022/10/15 07:04:32;;;;;;;;;;;14.40;99.90;;;;;;4961057;28;19970;-78
2022/10/15 07:06:59;;;;;;;;;;;14.50;99.90;;;;;;4960502;28;20022;-79
2022/10/15 07:09:28;;;;;;;;;;;14.50;99.90;;;;;;4959678;28;19930;-73
2022/10/15 07:11:55;;;;;;;;;;;14.50;99.90;;;;;;4959839;28;19930;-73
2022/10/15 07:14:21;;;;;;;;;;;14.50;99.90;;;;;;4953730;28;20041;-73
2022/10/15 07:16:48;;;;;;;;;;;14.50;99.90;;;;;;4954427;28;19956;-72
2022/10/15 07:19:15;;;;;;;;;;;14.50;99.90;;;;;;4958635;28;19961;-73
2022/10/15 07:21:44;;;;;;;;;;;14.50;99.90;;;;;;4959972;28;19941;-73
2022/10/15 07:24:11;;;;;;;;;;;14.40;99.90;;;;;;4959863;28;19926;-73
2022/10/15 07:26:37;;;;;;;;;;;14.50;99.90;;;;;;4961056;28;19941;-75
2022/10/15 07:29:04;;;;;;;;;;;14.40;99.90;;;;;;4960816;28;20518;-73
2022/10/15 07:31:31;;;;;;;;;;;14.50;99.90;;;;;;4954694;28;19932;-73
2022/10/15 07:33:58;;;;;;;;;;;14.50;99.90;;;;;;4963159;28;21535;-73
2022/10/15 07:36:26;;;;;;;;;;;14.50;99.90;;;;;;4965119;28;19989;-75
2022/10/15 07:38:54;;;;;;;;;;;14.50;99.90;;;;;;4965798;28;19932;-73
2022/10/15 07:41:21;;;;;;;;;;;14.50;99.90;;;;;;4958941;28;19926;-73
2022/10/15 07:43:48;;;;;;;;;;;14.50;99.90;;;;;;4967417;28;19940;-73
2022/10/15 07:46:14;;;;;;;;;;;14.50;99.90;;;;;;4963893;28;19936;-73
2022/10/15 07:48:41;;;;;;;;;;;14.50;99.90;;;;;;4963211;28;19926;-73
2022/10/15 07:51:08;;;;;;;;;;;14.50;99.90;;;;;;4960752;28;20021;-73
2022/10/15 07:53:35;;;;;;;;;;;14.50;99.90;;;;;;4964109;28;19969;-73
2022/10/15 07:56:05;;;;;;;;;;;14.50;99.90;;;;;;4966179;28;19933;-73
2022/10/15 07:58:33;;;;;;;;;;;14.50;99.90;;;;;;4963760;28;19926;-73
2022/10/15 08:01:00;;;;;;;;;;;14.50;99.90;;;;;;4959992;28;19952;-73
2022/10/15 08:03:27;;;;;;;;;;;14.50;99.90;;;;;;4959278;28;20033;-72
2022/10/15 08:05:54;;;;;;;;;;;14.50;99.90;;;;;;4957790;28;20013;-73
2022/10/15 08:08:24;;;;;;;;;;;14.50;99.90;;;;;;4961319;28;19930;-72
2022/10/15 08:10:50;;;;;;;;;;;14.50;99.90;;;;;;4961843;28;20391;-76
2022/10/15 08:13:19;;;;;;;;;;;14.50;99.90;;;;;;4956875;28;19969;-73
2022/10/15 08:15:49;;;;;;;;;;;14.50;99.90;;;;;;4958995;28;19926;-72
2022/10/15 08:18:15;;;;;;;;;;;14.50;99.90;;;;;;4958375;28;19969;-72
2022/10/15 08:20:44;;;;;;;;;;;14.60;99.90;;;;;;4960397;28;20028;-73
2022/10/15 08:23:14;;;;;;;;;;;14.60;99.90;;;;;;4960375;28;19969;-72
2022/10/15 08:25:41;;;;;;;;;;;14.60;99.90;;;;;;4960287;28;19926;-72
2022/10/15 08:28:11;;;;;;;;;;;14.60;99.90;;;;;;4960847;28;20347;-73
2022/10/15 08:30:39;;;;;;;;;;;14.60;99.90;;;;;;4953761;28;19931;-72
2022/10/15 08:33:11;;;;;;;;;;;14.60;99.90;;;;;;4965338;28;20119;-72
2022/10/15 08:35:40;;;;;;;;;;;14.60;99.90;;;;;;4934348;28;20373;-72
2022/10/15 08:38:07;;;;;;;;;;;14.60;99.90;;;;;;4956028;28;20023;-73
2022/10/15 08:40:34;;;;;;;;;;;14.60;99.90;;;;;;4948924;28;19931;-72
2022/10/15 08:43:01;;;;;;;;;;;14.60;99.90;;;;;;4960862;28;19926;-73
2022/10/15 08:45:29;;;;;;;;;;;14.60;99.90;;;;;;4971328;28;19934;-73
2022/10/15 08:48:00;;;;;;;;;;;14.60;99.90;;;;;;4958771;28;19954;-72
2022/10/15 08:50:32;;;;;;;;;;;14.60;99.90;;;;;;4958390;28;19926;-73
2022/10/15 08:52:59;;;;;;;;;;;14.70;99.90;;;;;;4959251;28;20022;-72
2022/10/15 08:55:29;;;;;;;;;;;14.70;99.90;;;;;;4959192;28;19973;-72
2022/10/15 08:57:58;;;;;;;;;;;14.70;99.90;;;;;;4952354;28;19962;-73
2022/10/15 09:00:27;;;;;;;;;;;14.70;99.90;;;;;;4951118;28;20017;-73
2022/10/15 09:02:57;;;;;;;;;;;14.70;99.90;;;;;;4960413;28;20282;-71
2022/10/15 09:05:31;;;;;;;;;;;14.70;99.90;;;;;;4962045;28;19969;-72
2022/10/15 09:08:02;;;;;;;;;;;14.70;99.90;;;;;;4959748;28;19980;-72
2022/10/15 09:10:33;;;;;;;;;;;14.70;99.90;;;;;;4948008;28;19935;-70
2022/10/15 09:13:03;;;;;;;;;;;14.70;99.90;;;;;;4947027;28;19982;-72
2022/10/15 09:15:33;;;;;;;;;;;14.70;99.90;;;;;;4971057;28;19937;-72
2022/10/15 09:17:59;;;;;;;;;;;14.80;99.90;;;;;;4956975;28;20021;-71
2022/10/15 09:20:35;;;;;;;;;;;14.80;99.90;;;;;;4959725;28;19926;-72
2022/10/15 09:23:02;;;;;;;;;;;14.80;99.90;;;;;;4952332;28;19926;-72
2022/10/15 09:25:32;;;;;;;;;;;14.80;99.90;;;;;;4960229;28;19934;-72
2022/10/15 09:28:02;;;;;;;;;;;14.90;99.90;;;;;;4963830;28;19942;-71
2022/10/15 09:30:35;;;;;;;;;;;14.90;99.90;;;;;;4968941;28;19927;-73
2022/10/15 09:33:07;;;;;;;;;;;14.90;99.90;;;;;;4945269;28;19933;-73
2022/10/15 09:35:38;;;;;;;;;;;14.90;99.90;;;;;;4975176;28;20029;-73
2022/10/15 09:38:12;;;;;;;;;;;15.00;99.90;;;;;;4961306;28;19940;-73
2022/10/15 09:40:52;;;;;;;;;;;14.90;99.90;;;;;;4961382;28;19933;-73
2022/10/15 09:43:26;;;;;;;;;;;15.00;99.90;;;;;;4967072;28;20036;-72
2022/10/15 09:45:52;;;;;;;;;;;15.00;99.90;;;;;;4957165;28;19930;-73
2022/10/15 09:48:20;;;;;;;;;;;15.00;99.90;;;;;;4966776;28;19930;-73
2022/10/15 09:50:55;;;;;;;;;;;15.00;99.90;;;;;;4963809;28;19942;-73
2022/10/15 09:53:25;;;;;;;;;;;15.00;99.90;;;;;;4958928;28;20554;-73
2022/10/15 09:55:55;;;;;;;;;;;15.00;99.90;;;;;;4954593;28;20013;-73
2022/10/15 09:58:26;;;;;;;;;;;15.10;99.90;;;;;;4964139;28;20420;-72
2022/10/15 10:00:54;;;;;;;;;;;15.10;99.90;;;;;;4966699;28;20277;-73
2022/10/15 10:03:22;;;;;;;;;;;15.10;99.90;;;;;;4960876;28;19937;-72
2022/10/15 10:05:51;;;;;;;;;;;15.10;99.90;;;;;;4957692;28;20388;-73
2022/10/15 10:08:20;;;;;;;;;;;15.20;99.90;;;;;;4965854;28;19976;-72
2022/10/15 10:10:53;;;;;;;;;;;15.20;99.90;;;;;;4959690;28;19936;-73
2022/10/15 10:13:23;;;;;;;;;;;15.20;99.90;;;;;;4957826;28;19926;-73
2022/10/15 10:15:51;;;;;;;;;;;15.20;99.90;;;;;;4956921;28;20283;-73
2022/10/15 10:18:19;;;;;;;;;;;15.30;99.90;;;;;;4956102;28;19934;-73
2022/10/15 10:20:57;;;;;;;;;;;15.30;99.90;;;;;;4954442;28;20560;-72
2022/10/15 10:23:25;;;;;;;;;;;15.30;99.90;;;;;;4942892;28;20324;-72
2022/10/15 10:25:55;;;;;;;;;;;15.30;99.90;;;;;;4955868;28;19926;-74
2022/10/15 10:28:26;;;;;;;;;;;15.40;99.90;;;;;;4962734;28;19954;-74
2022/10/15 10:31:02;;;;;;;;;;;15.40;99.90;;;;;;4962402;28;20439;-73
2022/10/15 10:33:30;;;;;;;;;;;15.40;99.90;;;;;;4957070;28;19984;-74
2022/10/15 10:35:59;;;;;;;;;;;15.40;99.90;;;;;;4967761;28;20392;-74
2022/10/15 10:38:27;;;;;;;;;;;15.40;99.90;;;;;;4946643;28;19930;-76
2022/10/15 10:40:56;;;;;;;;;;;15.40;99.90;;;;;;4960127;28;19934;-74
2022/10/15 10:43:25;;;;;;;;;;;15.40;99.90;;;;;;4950611;28;19926;-73
2022/10/15 10:45:56;;;;;;;;;;;15.40;99.90;;;;;;4961255;28;19965;-74
2022/10/15 10:48:24;;;;;;;;;;;15.50;99.90;;;;;;4957437;28;20407;-73
2022/10/15 10:51:03;;;;;;;;;;;15.50;99.90;;;;;;4964849;28;19926;-74
2022/10/15 10:53:30;;;;;;;;;;;15.50;99.90;;;;;;4962444;28;19954;-74
2022/10/15 10:55:58;;;;;;;;;;;15.50;99.90;;;;;;4961156;28;19926;-75
2022/10/15 10:58:27;;;;;;;;;;;15.60;99.90;;;;;;4964068;28;19926;-72
2022/10/15 11:00:55;;;;;;;;;;;15.60;99.90;;;;;;4962708;28;19930;-73
2022/10/15 11:03:32;;;;;;;;;;;15.60;99.90;;;;;;4956494;28;19926;-73
2022/10/15 11:06:06;;;;;;;;;;;15.60;99.90;;;;;;4961567;28;19984;-73
2022/10/15 11:08:34;;;;;;;;;;;15.60;99.90;;;;;;4962317;28;20449;-71
2022/10/15 11:11:06;;;;;;;;;;;15.60;99.90;;;;;;4957799;28;19926;-72
2022/10/15 11:13:39;;;;;;;;;;;15.70;99.90;;;;;;4958024;28;20619;-72
2022/10/15 11:16:11;;;;;;;;;;;15.70;99.90;;;;;;4963560;28;19997;-71
2022/10/15 11:18:48;;;;;;;;;;;15.70;99.90;;;;;;4962230;28;19958;-76
2022/10/15 11:21:20;;;;;;;;;;;15.70;99.90;;;;;;4958253;28;20355;-77
2022/10/15 11:23:57;;;;;;;;;;;15.80;99.90;;;;;;4962854;28;20388;-75
2022/10/15 11:26:30;;;;;;;;;;;15.80;99.90;;;;;;4962761;28;19930;-73
2022/10/15 11:29:05;;;;;;;;;;;15.80;99.90;;;;;;4963795;28;19938;-76
2022/10/15 11:31:35;;;;;;;;;;;15.80;99.90;;;;;;4973677;28;19941;-80
2022/10/15 11:34:13;;;;;;;;;;;15.80;99.90;;;;;;4964405;28;19961;-74
2022/10/15 11:36:48;;;;;;;;;;;15.80;99.90;;;;;;4959165;28;20025;-78
2022/10/15 11:39:32;;;;;;;;;;;15.90;99.90;;;;;;4964454;28;20352;-81
2022/10/15 11:42:06;;;;;;;;;;;15.80;99.90;;;;;;4960539;28;20640;-75
2022/10/15 11:44:38;;;;;;;;;;;15.90;99.90;;;;;;4961180;28;22254;-80
2022/10/15 11:47:12;;;;;;;;;;;15.90;99.90;;;;;;4963369;28;19952;-79
2022/10/15 11:49:44;;;;;;;;;;;15.90;99.90;;;;;;4962768;28;19930;-79
2022/10/15 11:52:23;;;;;;;;;;;15.90;99.90;;;;;;4955089;28;24893;-80
2022/10/15 11:54:57;;;;;;;;;;;15.90;99.90;;;;;;4962430;28;20487;-79
2022/10/15 11:57:25;;;;;;;;;;;15.90;99.90;;;;;;4960118;28;20468;-83
2022/10/15 11:59:54;;;;;;;;;;;16.00;99.90;;;;;;4958494;28;19983;-83
2022/10/15 12:02:24;;;;;;;;;;;16.00;99.90;;;;;;4965060;28;19930;-77
2022/10/15 12:04:54;;;;;;;;;;;16.00;99.90;;;;;;4960226;28;19938;-77
2022/10/15 12:07:24;;;;;;;;;;;16.00;99.90;;;;;;4959609;28;19934;-77
2022/10/15 12:09:53;;;;;;;;;;;16.10;99.90;;;;;;4959542;28;19933;-77
2022/10/15 12:12:25;;;;;;;;;;;16.10;99.90;;;;;;4966275;28;20025;-77
2022/10/15 12:14:59;;;;;;;;;;;16.10;99.90;;;;;;4960500;28;19926;-77
2022/10/15 12:17:30;;;;;;;;;;;16.10;99.90;;;;;;4965431;28;19973;-77
2022/10/15 12:20:01;;;;;;;;;;;16.10;99.90;;;;;;4979409;28;19954;-77
2022/10/15 12:22:33;;;;;;;;;;;16.10;99.90;;;;;;4953198;28;20013;-77
2022/10/15 12:25:01;;;;;;;;;;;16.10;99.90;;;;;;4964684;28;20106;-77
2022/10/15 12:27:33;;;;;;;;;;;16.10;99.90;;;;;;4960967;28;20313;-78
2022/10/15 12:30:18;;;;;;;;;;;16.10;99.90;;;;;;4965397;28;19934;-78
2022/10/15 12:32:46;;;;;;;;;;;16.10;99.90;;;;;;4960308;28;19969;-77
2022/10/15 12:35:24;;;;;;;;;;;16.10;99.90;;;;;;4962703;28;19950;-77
2022/10/15 12:37:52;;;;;;;;;;;16.20;99.90;;;;;;4949811;28;19930;-76
2022/10/15 12:40:27;;;;;;;;;;;16.20;99.90;;;;;;4954765;28;20381;-78
2022/10/15 12:42:55;;;;;;;;;;;16.20;99.90;;;;;;4959542;28;20061;-77
2022/10/15 12:45:27;;;;;;;;;;;16.20;99.90;;;;;;4964018;28;21411;-77
2022/10/15 12:47:55;;;;;;;;;;;16.20;99.90;;;;;;4960700;28;21265;-77
2022/10/15 12:50:23;;;;;;;;;;;16.20;99.90;;;;;;4966965;28;19941;-77
2022/10/15 12:53:01;;;;;;;;;;;16.20;99.90;;;;;;4964331;28;20280;-77
2022/10/15 12:55:30;;;;;;;;;;;16.30;99.90;;;;;;4968852;28;19953;-77
2022/10/15 12:57:58;;;;;;;;;;;16.30;99.90;;;;;;4946672;28;20025;-77
2022/10/15 13:00:29;;;;;;;;;;;16.30;99.90;;;;;;4961181;28;19966;-78
2022/10/15 13:03:01;;;;;;;;;;;16.30;99.90;;;;;;4964189;28;20008;-83
2022/10/15 13:05:29;;;;;;;;;;;16.40;99.90;;;;;;4958335;28;19930;-79
2022/10/15 13:07:57;;;;;;;;;;;16.40;99.90;;;;;;4960615;28;19934;-76
2022/10/15 13:10:28;;;;;;;;;;;16.50;99.90;;;;;;4957390;28;19953;-77
2022/10/15 13:12:56;;;;;;;;;;;16.50;99.90;;;;;;4960905;28;20331;-85
2022/10/15 13:15:25;;;;;;;;;;;16.60;99.90;;;;;;4957661;28;19934;-76
2022/10/15 13:17:52;;;;;;;;;;;16.50;99.90;;;;;;4958366;28;19973;-76
2022/10/15 13:20:29;;;;;;;;;;;16.60;99.90;;;;;;4936826;28;19997;-77
2022/10/15 13:23:07;;;;;;;;;;;16.60;99.90;;;;;;4942802;28;19938;-77
2022/10/15 13:25:36;;;;;;;;;;;16.60;99.90;;;;;;4962718;28;19926;-75
2022/10/15 13:28:18;;;;;;;;;;;16.60;99.90;;;;;;4956084;28;19934;-77
2022/10/15 13:30:48;;;;;;;;;;;16.60;99.90;;;;;;4952897;28;19934;-76
2022/10/15 13:33:15;;;;;;;;;;;16.60;99.90;;;;;;4956300;28;19944;-76
2022/10/15 13:35:41;;;;;;;;;;;16.60;99.90;;;;;;4961322;28;20024;-76
2022/10/15 13:38:18;;;;;;;;;;;16.70;99.90;;;;;;4950772;28;19941;-76
2022/10/15 13:40:48;;;;;;;;;;;16.70;99.90;;;;;;4947468;28;19967;-76
2022/10/15 13:43:16;;;;;;;;;;;16.70;99.90;;;;;;4954915;28;20024;-76
2022/10/15 13:45:47;;;;;;;;;;;16.70;99.90;;;;;;4964627;28;19938;-75
2022/10/15 13:48:20;;;;;;;;;;;16.70;99.90;;;;;;4959467;28;20328;-88
2022/10/15 13:50:48;;;;;;;;;;;16.70;99.90;;;;;;4957431;28;19934;-76
2022/10/15 13:53:18;;;;;;;;;;;16.80;99.90;;;;;;4963959;28;19938;-77
2022/10/15 13:55:46;;;;;;;;;;;16.90;99.90;;;;;;4967536;28;19926;-76
2022/10/15 13:58:18;;;;;;;;;;;16.90;99.90;;;;;;4969905;28;20465;-77
2022/10/15 14:00:50;;;;;;;;;;;17.00;99.90;;;;;;4959547;28;20017;-77
2022/10/15 14:03:19;;;;;;;;;;;17.00;99.90;;;;;;4967736;28;20026;-78
2022/10/15 14:05:47;;;;;;;;;;;17.00;99.90;;;;;;4967691;28;20403;-77
2022/10/15 14:08:18;;;;;;;;;;;17.00;99.90;;;;;;4970170;28;19961;-77
2022/10/15 14:10:44;;;;;;;;;;;17.00;99.90;;;;;;4966562;28;20412;-77
2022/10/15 14:13:11;;;;;;;;;;;17.00;99.90;;;;;;4963060;28;19969;-77
2022/10/15 14:15:48;;;;;;;;;;;17.10;99.90;;;;;;4969424;28;19932;-77
2022/10/15 14:18:16;;;;;;;;;;;17.10;99.90;;;;;;4965091;28;19930;-77
2022/10/15 14:20:43;;;;;;;;;;;17.20;99.90;;;;;;4965183;28;19926;-77
2022/10/15 14:23:15;;;;;;;;;;;17.20;99.90;;;;;;4966701;28;20014;-77
2022/10/15 14:25:42;;;;;;;;;;;17.10;99.90;;;;;;4967164;28;19941;-78
2022/10/15 14:28:17;;;;;;;;;;;17.10;99.90;;;;;;4956660;28;19926;-77
2022/10/15 14:30:46;;;;;;;;;;;17.10;99.90;;;;;;4961616;28;19938;-77